createdAt,value
2022-08-03T00:01:40.079Z,101645.53
2022-08-03T00:04:07.584Z,101644.25
2022-08-03T00:06:37.104Z,101641.53
2022-08-03T00:09:06.912Z,101609.91
2022-08-03T00:11:34.878Z,101644.25
2022-08-03T00:14:01.322Z,101637.34
2022-08-03T00:16:27.836Z,101609.88
2022-08-03T00:18:54.299Z,101624.53
2022-08-03T00:21:20.725Z,101626.66
2022-08-03T00:23:51.427Z,101601.31
2022-08-03T00:26:22.206Z,101626.66
2022-08-03T00:28:49.805Z,101630.63
2022-08-03T00:31:16.596Z,101631.91
2022-08-03T00:33:58.959Z,101632.09
2022-08-03T00:36:26.432Z,101633.16
2022-08-03T00:38:52.846Z,101632.09
2022-08-03T00:41:19.254Z,101625.81
2022-08-03T00:43:47.363Z,101629.19
2022-08-03T00:46:17.748Z,101601.53
2022-08-03T00:48:47.202Z,101629.81
2022-08-03T00:51:13.836Z,101631.91
2022-08-03T00:53:40.275Z,101633.34
2022-08-03T00:56:06.804Z,101621.66
2022-08-03T00:58:33.413Z,101612.44
2022-08-03T01:01:00.050Z,101630.66
2022-08-03T01:03:26.543Z,101623.09
2022-08-03T01:06:13.191Z,101633.78
2022-08-03T01:08:54.450Z,101622.25
2022-08-03T01:12:00.575Z,101622.69
2022-08-03T01:14:34.379Z,101622.88
2022-08-03T01:17:22.486Z,101609.28
2022-08-03T01:20:13.567Z,101617.03
2022-08-03T01:23:16.270Z,101610.72
2022-08-03T01:26:04.622Z,101622.47
2022-08-03T01:28:56.032Z,101621.63
2022-08-03T01:31:31.830Z,101623.72
2022-08-03T01:34:03.241Z,101622.25
2022-08-03T01:36:35.084Z,101592.94
2022-08-03T01:39:03.423Z,101614.31
2022-08-03T01:41:38.770Z,101613.66
2022-08-03T01:44:29.942Z,101610.03
2022-08-03T01:46:59.474Z,101610.03
2022-08-03T01:49:28.435Z,101583.41
2022-08-03T01:51:57.761Z,101588.84
2022-08-03T01:54:31.147Z,101603.53
2022-08-03T01:56:59.353Z,101600.13
2022-08-03T01:59:27.715Z,101608.31
2022-08-03T02:02:27.940Z,101609.78
2022-08-03T02:04:43.673Z,101604.94
2022-08-03T02:07:11.342Z,101596.75
2022-08-03T02:09:40.128Z,101618.78
2022-08-03T02:12:11.112Z,101587.38
2022-08-03T02:14:41.081Z,101614.81
2022-08-03T02:17:08.161Z,101615.63
2022-08-03T02:19:36.278Z,101612.47
2022-08-03T02:22:06.177Z,101581.25
2022-08-03T02:24:32.826Z,101613.31
2022-08-03T02:27:01.090Z,101624.38
2022-08-03T02:29:39.160Z,101603.81
2022-08-03T02:32:10.385Z,101603.78
2022-08-03T02:34:37.827Z,101602.13
2022-08-03T02:37:04.807Z,101618.44
2022-08-03T02:39:35.531Z,101610.03
2022-08-03T02:42:05.486Z,101614.59
2022-08-03T02:44:34.753Z,101576.19
2022-08-03T02:47:05.035Z,101610.00
2022-08-03T02:49:49.431Z,101602.44
2022-08-03T02:52:19.500Z,101609.59
2022-08-03T02:54:48.771Z,101615.22
2022-08-03T02:57:16.833Z,101614.84
2022-08-03T02:59:44.494Z,101612.94
2022-08-03T03:02:12.345Z,101607.91
2022-08-03T03:04:43.135Z,101616.88
2022-08-03T03:07:26.743Z,101610.63
2022-08-03T03:09:56.244Z,101607.06
2022-08-03T03:12:23.653Z,101606.84
2022-08-03T03:14:50.483Z,101602.25
2022-08-03T03:17:17.722Z,101600.91
2022-08-03T03:19:45.594Z,101605.66
2022-08-03T03:22:13.154Z,101605.69
2022-08-03T03:24:41.587Z,101605.28
2022-08-03T03:27:08.711Z,101602.78
2022-08-03T03:29:39.270Z,101572.63
2022-08-03T03:32:08.451Z,101610.75
2022-08-03T03:34:37.151Z,101609.97
2022-08-03T03:37:03.619Z,101580.38
2022-08-03T03:39:30.069Z,101611.22
2022-08-03T03:41:57.376Z,101609.16
2022-08-03T03:44:28.624Z,101614.19
2022-08-03T03:46:56.303Z,101614.63
2022-08-03T03:49:23.193Z,101584.84
2022-08-03T03:51:53.839Z,101607.72
2022-08-03T03:54:21.144Z,101577.25
2022-08-03T03:56:48.012Z,101602.88
2022-08-03T03:59:14.482Z,101606.22
2022-08-03T04:01:41.094Z,101575.41
2022-08-03T04:04:26.136Z,101595.59
2022-08-03T04:07:10.830Z,101607.72
2022-08-03T04:09:59.168Z,101615.47
2022-08-03T04:12:38.178Z,101616.09
2022-08-03T04:15:22.817Z,101607.13
2022-08-03T04:17:52.508Z,101582.22
2022-08-03T04:20:21.373Z,101603.59
2022-08-03T04:22:51.273Z,101598.19
2022-08-03T04:25:20.245Z,101607.00
2022-08-03T04:28:29.309Z,101601.56
2022-08-03T04:30:38.723Z,101608.91
2022-08-03T04:33:06.460Z,101613.50
2022-08-03T04:36:01.276Z,101607.03
2022-08-03T04:38:25.456Z,101571.19
2022-08-03T04:40:52.887Z,101578.72
2022-08-03T04:43:22.130Z,101610.59
2022-08-03T04:45:49.952Z,101608.91
2022-08-03T04:48:17.354Z,101604.69
2022-08-03T04:50:44.379Z,101620.63
2022-08-03T04:53:10.834Z,101625.47
2022-08-03T04:55:37.368Z,101626.31
2022-08-03T04:58:04.329Z,101621.50
2022-08-03T05:00:31.307Z,101625.91
2022-08-03T05:02:57.975Z,101626.97
2022-08-03T05:05:24.448Z,101621.75
2022-08-03T05:07:51.275Z,101628.84
2022-08-03T05:10:19.286Z,101628.47
2022-08-03T05:12:48.223Z,101629.09
2022-08-03T05:15:15.787Z,101632.88
2022-08-03T05:17:42.690Z,101632.50
2022-08-03T05:20:09.998Z,101634.59
2022-08-03T05:22:36.432Z,101635.03
2022-08-03T05:25:03.552Z,101637.75
2022-08-03T05:27:30.017Z,101637.97
2022-08-03T05:29:56.415Z,101632.53
2022-08-03T05:32:42.763Z,101628.53
2022-08-03T05:36:00.709Z,101631.28
2022-08-03T05:37:55.861Z,101622.88
2022-08-03T05:40:22.317Z,101626.22
2022-08-03T05:42:49.711Z,101613.44
2022-08-03T05:45:18.383Z,101615.69
2022-08-03T05:47:45.591Z,101598.22
2022-08-03T05:50:13.139Z,101601.25
2022-08-03T05:52:40.731Z,101596.34
2022-08-03T05:55:08.329Z,101592.47
2022-08-03T05:57:35.444Z,101594.28
2022-08-03T06:00:05.376Z,101591.69
2022-08-03T06:02:32.513Z,101590.97
2022-08-03T06:04:58.917Z,101594.41
2022-08-03T06:07:25.389Z,101577.53
2022-08-03T06:10:36.387Z,101598.25
2022-08-03T06:12:41.088Z,101598.53
2022-08-03T06:15:08.044Z,101593.31
2022-08-03T06:17:45.266Z,101598.03
2022-08-03T06:20:12.171Z,101574.47
2022-08-03T06:22:50.411Z,101587.56
2022-08-03T06:25:19.331Z,101579.13
2022-08-03T06:27:47.831Z,101573.50
2022-08-03T06:30:18.071Z,101585.50
2022-08-03T06:32:51.868Z,101589.78
2022-08-03T06:35:19.186Z,101582.94
2022-08-03T06:37:50.136Z,101588.56
2022-08-03T06:40:24.263Z,101581.94
2022-08-03T06:42:51.095Z,101599.34
2022-08-03T06:45:18.024Z,101595.41
2022-08-03T06:47:44.601Z,101600.41
2022-08-03T06:50:16.257Z,101608.47
2022-08-03T06:52:43.116Z,101595.97
2022-08-03T06:55:09.751Z,101598.09
2022-08-03T06:57:36.165Z,101599.06
2022-08-03T07:00:07.392Z,101592.13
2022-08-03T07:02:38.403Z,101600.25
2022-08-03T07:05:06.008Z,101590.00
2022-08-03T07:07:32.417Z,101595.72
2022-08-03T07:09:58.888Z,101592.13
2022-08-03T07:12:26.947Z,101587.84
2022-08-03T07:14:57.959Z,101589.75
2022-08-03T07:17:27.380Z,101567.97
2022-08-03T07:19:53.769Z,101588.56
2022-08-03T07:22:20.253Z,101587.34
2022-08-03T07:24:47.723Z,101594.53
2022-08-03T07:27:16.245Z,101585.22
2022-08-03T07:29:42.720Z,101588.78
2022-08-03T07:32:09.337Z,101583.91
2022-08-03T07:34:35.778Z,101569.66
2022-08-03T07:37:02.246Z,101581.00
2022-08-03T07:39:28.646Z,101592.16
2022-08-03T07:41:55.029Z,101593.22
2022-08-03T07:44:21.708Z,101586.47
2022-08-03T07:46:48.135Z,101590.22
2022-08-03T07:49:14.637Z,101582.47
2022-08-03T07:51:41.204Z,101594.38
2022-08-03T07:54:10.084Z,101583.72
2022-08-03T07:56:37.124Z,101580.31
2022-08-03T07:59:03.707Z,101593.59
2022-08-03T08:01:32.736Z,101588.84
2022-08-03T08:03:59.369Z,101580.69
2022-08-03T08:06:25.792Z,101573.13
2022-08-03T08:08:53.618Z,101587.78
2022-08-03T08:11:22.201Z,101581.53
2022-08-03T08:13:48.669Z,101580.63
2022-08-03T08:16:15.129Z,101575.72
2022-08-03T08:18:41.514Z,101576.63
2022-08-03T08:21:08.079Z,101572.44
2022-08-03T08:23:42.307Z,101584.00
2022-08-03T08:26:10.445Z,101576.13
2022-08-03T08:28:37.002Z,101581.66
2022-08-03T08:31:03.432Z,101578.69
2022-08-03T08:33:48.100Z,101572.31
2022-08-03T08:36:17.072Z,101578.19
2022-08-03T08:38:44.977Z,101564.13
2022-08-03T08:41:13.151Z,101582.81
2022-08-03T08:43:39.590Z,101580.06
2022-08-03T08:46:09.967Z,101571.72
2022-08-03T08:48:41.734Z,101585.69
2022-08-03T08:51:09.275Z,101586.56
2022-08-03T08:53:37.400Z,101587.09
2022-08-03T08:56:05.320Z,101592.22
2022-08-03T08:58:37.953Z,101587.34
2022-08-03T09:01:05.648Z,101599.50
2022-08-03T09:03:34.143Z,101595.03
2022-08-03T09:06:02.149Z,101591.38
2022-08-03T09:08:29.985Z,101589.19
2022-08-03T09:10:56.661Z,101592.34
2022-08-03T09:13:23.162Z,101582.34
2022-08-03T09:16:08.577Z,101582.72
2022-08-03T09:18:34.960Z,101588.91
2022-08-03T09:21:32.832Z,101581.50
2022-08-03T09:24:04.364Z,101584.00
2022-08-03T09:26:34.411Z,101580.78
2022-08-03T09:29:14.412Z,101588.97
2022-08-03T09:31:47.177Z,101574.81
2022-08-03T09:34:16.930Z,101590.31
2022-08-03T09:36:50.170Z,101585.38
2022-08-03T09:39:41.405Z,101589.31
2022-08-03T09:42:14.810Z,101577.75
2022-08-03T09:44:44.355Z,101583.00
2022-08-03T09:47:12.478Z,101578.25
2022-08-03T09:49:41.543Z,101570.59
2022-08-03T09:52:32.975Z,101572.19
2022-08-03T09:55:23.842Z,101571.34
2022-08-03T09:58:08.289Z,101576.63
2022-08-03T10:00:53.902Z,101563.94
2022-08-03T10:03:20.662Z,101577.34
2022-08-03T10:05:47.277Z,101576.06
2022-08-03T10:08:18.505Z,101579.91
2022-08-03T10:10:47.824Z,101573.16
2022-08-03T10:13:15.631Z,101570.25
2022-08-03T10:16:24.146Z,101571.47
2022-08-03T10:18:28.597Z,101577.00
2022-08-03T10:21:03.228Z,101574.50
2022-08-03T10:23:34.890Z,101567.13
2022-08-03T10:26:04.662Z,101570.25
2022-08-03T10:28:47.267Z,101566.97
2022-08-03T10:31:14.760Z,101568.59
2022-08-03T10:33:52.795Z,101568.00
2022-08-03T10:36:23.775Z,101575.44
2022-08-03T10:38:56.456Z,101566.59
2022-08-03T10:41:26.443Z,101560.75
2022-08-03T10:44:05.013Z,101569.34
2022-08-03T10:46:33.536Z,101566.28
2022-08-03T10:49:00.728Z,101567.19
2022-08-03T10:51:31.901Z,101545.22
2022-08-03T10:53:59.704Z,101557.75
2022-08-03T10:56:53.468Z,101558.19
2022-08-03T10:59:47.006Z,101552.19
2022-08-03T11:02:14.857Z,101555.78
2022-08-03T11:04:42.751Z,101540.25
2022-08-03T11:07:23.798Z,101548.31
2022-08-03T11:09:55.675Z,101545.56
2022-08-03T11:12:28.984Z,101547.91
2022-08-03T11:15:01.874Z,101550.03
2022-08-03T11:17:28.618Z,101543.38
2022-08-03T11:19:56.495Z,101556.44
2022-08-03T11:22:25.013Z,101548.16
2022-08-03T11:24:54.426Z,101550.03
2022-08-03T11:27:23.100Z,101545.09
2022-08-03T11:30:11.045Z,101552.00
2022-08-03T11:32:37.411Z,101544.94
2022-08-03T11:35:14.666Z,101549.72
2022-08-03T11:38:07.021Z,101541.47
2022-08-03T11:40:46.568Z,101546.56
2022-08-03T11:43:22.000Z,101539.78
2022-08-03T11:46:28.737Z,101540.28
2022-08-03T11:49:10.720Z,101544.38
2022-08-03T11:51:38.767Z,101541.63
2022-08-03T11:54:06.519Z,101541.63
2022-08-03T11:56:50.230Z,101540.44
2022-08-03T11:59:21.747Z,101541.66
2022-08-03T12:01:48.864Z,101537.34
2022-08-03T12:04:16.581Z,101544.56
2022-08-03T12:07:01.058Z,101549.91
2022-08-03T12:09:27.572Z,101549.13
2022-08-03T12:11:59.521Z,101547.91
2022-08-03T12:14:49.545Z,101541.22
2022-08-03T12:17:14.585Z,101536.59
2022-08-03T12:19:44.582Z,101532.72
2022-08-03T12:22:11.013Z,101523.97
2022-08-03T12:24:42.572Z,101514.09
2022-08-03T12:27:09.333Z,101499.91
2022-08-03T12:29:36.136Z,101527.31
2022-08-03T12:32:02.562Z,101531.09
2022-08-03T12:34:49.238Z,101538.50
2022-08-03T12:37:23.564Z,101517.69
2022-08-03T12:40:00.550Z,101515.66
2022-08-03T12:42:37.159Z,101524.59
2022-08-03T12:45:26.981Z,101528.84
2022-08-03T12:47:59.384Z,101530.44
2022-08-03T12:50:37.194Z,101527.72
2022-08-03T12:53:07.900Z,101523.50
2022-08-03T12:55:57.901Z,101523.72
2022-08-03T12:58:35.380Z,101520.81
2022-08-03T13:01:09.953Z,101533.94
2022-08-03T13:03:45.641Z,101499.94
2022-08-03T13:06:17.890Z,101517.63
2022-08-03T13:08:45.928Z,101527.50
2022-08-03T13:11:22.641Z,101529.59
2022-08-03T13:13:50.055Z,101510.03
2022-08-03T13:16:19.292Z,101520.00
2022-08-03T13:18:48.869Z,101520.78
2022-08-03T13:21:16.448Z,101524.53
2022-08-03T13:23:43.688Z,101524.78
2022-08-03T13:26:11.866Z,101526.88
2022-08-03T13:28:39.294Z,101519.63
2022-08-03T13:31:07.104Z,101524.75
2022-08-03T13:33:33.806Z,101519.28
2022-08-03T13:36:00.252Z,101509.47
2022-08-03T13:38:27.049Z,101519.63
2022-08-03T13:40:53.738Z,101525.16
2022-08-03T13:43:21.325Z,101521.19
2022-08-03T13:45:52.387Z,101499.53
2022-08-03T13:48:36.213Z,101514.53
2022-08-03T13:51:11.620Z,101516.91
2022-08-03T13:53:48.196Z,101522.19
2022-08-03T13:56:14.566Z,101509.22
2022-08-03T13:58:40.953Z,101509.91
2022-08-03T14:01:07.484Z,101517.56
2022-08-03T14:03:33.901Z,101511.16
2022-08-03T14:06:00.328Z,101511.09
2022-08-03T14:08:26.736Z,101499.63
2022-08-03T14:10:53.154Z,101507.59
2022-08-03T14:13:19.587Z,101509.72
2022-08-03T14:15:50.933Z,101507.25
2022-08-03T14:18:29.345Z,101509.47
2022-08-03T14:21:06.032Z,101506.94
2022-08-03T14:23:33.538Z,101507.16
2022-08-03T14:26:00.148Z,101517.22
2022-08-03T14:28:26.575Z,101506.31
2022-08-03T14:30:54.448Z,101510.97
2022-08-03T14:33:21.212Z,101495.13
2022-08-03T14:35:48.978Z,101510.81
2022-08-03T14:38:16.198Z,101512.78
2022-08-03T14:40:43.345Z,101516.50
2022-08-03T14:43:09.982Z,101498.22
2022-08-03T14:45:36.725Z,101501.75
2022-08-03T14:50:29.294Z,101482.41
2022-08-03T14:50:52.566Z,101508.41
2022-08-03T14:53:19.902Z,101504.66
2022-08-03T14:55:49.803Z,101497.97
2022-08-03T14:58:21.095Z,101501.59
2022-08-03T15:00:49.802Z,101498.63
2022-08-03T15:03:20.122Z,101500.03
2022-08-03T15:05:46.778Z,101490.44
2022-08-03T15:08:13.169Z,101486.84
2022-08-03T15:10:43.940Z,101483.03
2022-08-03T15:13:11.389Z,101484.97
2022-08-03T15:15:37.805Z,101492.56
2022-08-03T15:18:04.475Z,101485.66
2022-08-03T15:20:43.400Z,101474.59
2022-08-03T15:23:11.604Z,101482.41
2022-08-03T15:26:03.290Z,101486.78
2022-08-03T15:28:24.562Z,101478.97
2022-08-03T15:30:54.684Z,101482.34
2022-08-03T15:33:21.339Z,101474.31
2022-08-03T15:35:47.967Z,101474.19
2022-08-03T15:38:14.787Z,101487.34
2022-08-03T15:40:41.653Z,101492.88
2022-08-03T15:43:08.118Z,101481.69
2022-08-03T15:45:35.323Z,101477.22
2022-08-03T15:48:04.330Z,101478.91
2022-08-03T15:50:30.765Z,101475.06
2022-08-03T15:52:57.339Z,101474.84
2022-08-03T15:55:23.827Z,101469.22
2022-08-03T15:59:07.659Z,101479.25
2022-08-03T16:00:36.975Z,101473.69
2022-08-03T16:03:03.616Z,101476.09
2022-08-03T16:05:30.069Z,101478.06
2022-08-03T16:08:03.222Z,101470.50
2022-08-03T16:10:31.236Z,101479.88
2022-08-03T16:12:58.920Z,101482.22
2022-08-03T16:15:25.459Z,101474.63
2022-08-03T16:17:51.907Z,101477.88
2022-08-03T16:20:30.992Z,101465.34
2022-08-03T16:23:07.743Z,101474.47
2022-08-03T16:25:37.998Z,101479.66
2022-08-03T16:28:08.279Z,101496.53
2022-08-03T16:30:39.708Z,101484.56
2022-08-03T16:33:06.242Z,101498.59
2022-08-03T16:35:32.880Z,101496.09
2022-08-03T16:38:00.546Z,101487.13
2022-08-03T16:40:27.256Z,101503.13
2022-08-03T16:42:54.094Z,101490.38
2022-08-03T16:45:20.583Z,101483.16
2022-08-03T16:47:47.005Z,101500.66
2022-08-03T16:50:27.760Z,101492.41
2022-08-03T16:52:54.207Z,101486.97
2022-08-03T16:55:43.323Z,101497.59
2022-08-03T16:58:07.975Z,101486.97
2022-08-03T17:00:41.815Z,101485.56
2022-08-03T17:03:18.619Z,101472.94
2022-08-03T17:05:48.114Z,101501.72
2022-08-03T17:08:26.079Z,101498.75
2022-08-03T17:10:52.793Z,101500.22
2022-08-03T17:13:21.785Z,101479.94
2022-08-03T17:16:00.858Z,101512.81
2022-08-03T17:18:34.914Z,101510.69
2022-08-03T17:21:06.529Z,101511.50
2022-08-03T17:23:45.614Z,101507.34
2022-08-03T17:26:21.232Z,101514.56
2022-08-03T17:28:58.347Z,101507.69
2022-08-03T17:31:31.162Z,101511.34
2022-08-03T17:34:00.702Z,101512.41
2022-08-03T17:36:41.861Z,101511.88
2022-08-03T17:39:16.543Z,101507.22
2022-08-03T17:41:49.072Z,101497.00
2022-08-03T17:44:31.065Z,101510.53
2022-08-03T17:47:05.051Z,101517.19
2022-08-03T17:49:33.206Z,101525.47
2022-08-03T17:52:22.018Z,101524.09
2022-08-03T17:55:54.838Z,101521.59
2022-08-03T17:58:17.095Z,101521.59
2022-08-03T18:03:57.828Z,101530.16
2022-08-03T18:06:30.688Z,101515.69
2022-08-03T18:09:04.827Z,101542.78
2022-08-03T18:11:35.737Z,101516.78
2022-08-03T18:14:15.875Z,101537.75
2022-08-03T18:16:55.168Z,101522.16
2022-08-03T18:20:00.963Z,101536.75
2022-08-03T18:22:11.321Z,101521.00
2022-08-03T18:24:38.281Z,101538.31
2022-08-03T18:27:06.643Z,101541.88
2022-08-03T18:29:35.729Z,101533.09
2022-08-03T18:32:05.282Z,101541.03
2022-08-03T18:34:35.948Z,101542.69
2022-08-03T18:37:08.441Z,101537.88
2022-08-03T18:39:49.271Z,101546.53
2022-08-03T18:42:19.355Z,101544.53
2022-08-03T18:44:54.163Z,101548.50
2022-08-03T18:47:51.875Z,101556.66
2022-08-03T18:50:34.703Z,101550.97
2022-08-03T18:53:15.512Z,101523.75
2022-08-03T18:56:02.237Z,101545.09
2022-08-03T18:59:05.116Z,101527.44
2022-08-03T19:01:59.622Z,101551.28
2022-08-03T19:04:35.072Z,101553.84
2022-08-03T19:07:09.525Z,101546.88
2022-08-03T19:09:48.362Z,101541.78
2022-08-03T19:12:37.436Z,101542.03
2022-08-03T19:15:12.460Z,101538.75
2022-08-03T19:17:57.231Z,101545.06
2022-08-03T19:20:30.814Z,101544.09
2022-08-03T19:22:59.666Z,101544.25
2022-08-03T19:25:34.683Z,101542.97
2022-08-03T19:28:03.680Z,101535.91
2022-08-03T19:30:38.783Z,101548.13
2022-08-03T19:33:11.438Z,101556.34
2022-08-03T19:35:55.230Z,101551.13
2022-08-03T19:38:28.374Z,101543.88
2022-08-03T19:41:03.781Z,101548.03
2022-08-03T19:43:53.986Z,101539.78
2022-08-03T19:46:30.444Z,101551.59
2022-08-03T19:49:04.790Z,101530.44
2022-08-03T19:52:02.346Z,101555.16
2022-08-03T19:54:25.326Z,101528.41
2022-08-03T19:56:57.180Z,101551.91
2022-08-03T19:59:26.472Z,101541.56
2022-08-03T20:01:52.975Z,101544.94
2022-08-03T20:04:21.204Z,101547.06
2022-08-03T20:06:49.634Z,101558.91
2022-08-03T20:09:17.958Z,101564.59
2022-08-03T20:11:45.149Z,101526.69
2022-08-03T20:14:13.260Z,101529.72
2022-08-03T20:16:48.072Z,101553.41
2022-08-03T20:19:16.447Z,101558.78
2022-08-03T20:21:48.059Z,101557.56
2022-08-03T20:24:26.394Z,101535.19
2022-08-03T20:26:55.343Z,101559.69
2022-08-03T20:30:05.199Z,101563.78
2022-08-03T20:32:19.626Z,101537.84
2022-08-03T20:34:51.218Z,101545.13
2022-08-03T20:37:19.447Z,101566.69
2022-08-03T20:39:49.377Z,101561.59
2022-08-03T20:42:21.454Z,101569.66
2022-08-03T20:45:04.583Z,101562.38
2022-08-03T20:47:36.857Z,101548.75
2022-08-03T20:50:16.866Z,101572.47
2022-08-03T20:52:49.321Z,101566.91
2022-08-03T20:55:16.889Z,101566.53
2022-08-03T20:57:43.564Z,101571.53
2022-08-03T21:00:19.453Z,101572.53
2022-08-03T21:02:48.614Z,101574.06
2022-08-03T21:05:16.338Z,101582.06
2022-08-03T21:08:04.951Z,101580.34
2022-08-03T21:10:37.896Z,101579.41
2022-08-03T21:13:17.828Z,101589.47
2022-08-03T21:16:01.201Z,101576.91
2022-08-03T21:18:38.015Z,101576.47
2022-08-03T21:21:06.847Z,101572.09
2022-08-03T21:23:48.386Z,101568.56
2022-08-03T21:26:17.327Z,101572.34
2022-08-03T21:28:46.551Z,101542.22
2022-08-03T21:31:13.659Z,101532.47
2022-08-03T21:33:40.863Z,101555.41
2022-08-03T21:36:10.943Z,101563.75
2022-08-03T21:38:37.666Z,101562.09
2022-08-03T21:41:04.151Z,101556.91
2022-08-03T21:43:30.633Z,101556.03
2022-08-03T21:46:03.183Z,101551.75
2022-08-03T21:48:35.992Z,101558.69
2022-08-03T21:51:03.311Z,101552.41
2022-08-03T21:54:00.313Z,101563.78
2022-08-03T21:56:21.675Z,101554.81
2022-08-03T21:58:55.183Z,101560.13
2022-08-03T22:01:25.428Z,101526.91
2022-08-03T22:03:56.736Z,101556.88
2022-08-03T22:06:27.722Z,101558.91
2022-08-03T22:08:54.432Z,101555.44
2022-08-03T22:11:21.153Z,101555.00
2022-08-03T22:13:48.266Z,101547.00
2022-08-03T22:16:15.292Z,101552.41
2022-08-03T22:18:45.423Z,101543.72
2022-08-03T22:21:15.784Z,101534.88
2022-08-03T22:23:46.475Z,101544.34
2022-08-03T22:26:34.661Z,101520.72
2022-08-03T22:29:06.778Z,101528.41
2022-08-03T22:31:58.296Z,101537.91
2022-08-03T22:34:26.430Z,101505.41
2022-08-03T22:36:57.174Z,101520.59
2022-08-03T22:39:29.076Z,101543.72
2022-08-03T22:41:57.883Z,101545.56
2022-08-03T22:44:25.506Z,101540.09
2022-08-03T22:46:52.348Z,101540.69
2022-08-03T22:49:20.059Z,101541.06
2022-08-03T22:51:47.361Z,101538.41
2022-08-03T22:54:14.435Z,101542.34
2022-08-03T22:56:41.405Z,101540.03
2022-08-03T22:59:39.862Z,101545.50
2022-08-03T23:01:58.512Z,101545.97
2022-08-03T23:04:25.990Z,101503.97
2022-08-03T23:06:56.632Z,101535.03
2022-08-03T23:09:24.408Z,101542.78
2022-08-03T23:11:55.363Z,101539.59
2022-08-03T23:14:22.882Z,101540.22
2022-08-03T23:16:51.307Z,101548.22
2022-08-03T23:19:25.348Z,101535.78
2022-08-03T23:22:02.527Z,101537.94
2022-08-03T23:24:30.779Z,101543.63
2022-08-03T23:26:58.473Z,101551.03
2022-08-03T23:29:26.320Z,101558.47
2022-08-03T23:31:53.714Z,101552.56
2022-08-03T23:34:39.812Z,101551.81
2022-08-03T23:37:06.488Z,101556.19
2022-08-03T23:39:35.208Z,101557.69
2022-08-03T23:42:02.840Z,101559.22
2022-08-03T23:44:31.100Z,101552.13
2022-08-03T23:46:57.509Z,101560.25
2022-08-03T23:49:23.931Z,101563.59
2022-08-03T23:51:56.309Z,101559.53
2022-08-03T23:54:37.933Z,101548.84
2022-08-03T23:57:22.767Z,101549.94
